sensor_id;sensor_type;location;lat;lon;timestamp;pressure;altitude;pressure_sealevel;temperature;humidity
74372;BME280;62885;51.374;6.170;2023-10-31T00:01:04;63672.13;;;10.83;100.00
74372;BME280;62885;51.374;6.170;2023-10-31T00:03:30;63674.28;;;10.85;100.00
74372;BME280;62885;51.374;6.170;2023-10-31T00:05:56;63655.13;;;10.82;100.00
74372;BME280;62885;51.374;6.170;2023-10-31T00:08:21;63694.84;;;10.80;100.00
74372;BME280;62885;51.374;6.170;2023-10-31T00:10:46;63669.41;;;10.81;100.00
74372;BME280;62885;51.374;6.170;2023-10-31T00:13:12;63669.41;;;10.81;100.00
74372;BME280;62885;51.374;6.170;2023-10-31T00:15:37;63687.31;;;10.75;100.00
74372;BME280;62885;51.374;6.170;2023-10-31T00:18:03;63650.75;;;10.78;100.00
74372;BME280;62885;51.374;6.170;2023-10-31T00:20:28;63692.13;;;10.77;100.00
74372;BME280;62885;51.374;6.170;2023-10-31T00:22:54;63689.97;;;10.75;100.00
74372;BME280;62885;51.374;6.170;2023-10-31T00:25:19;63669.94;;;10.81;100.00
74372;BME280;62885;51.374;6.170;2023-10-31T00:27:45;63655.66;;;10.83;100.00
74372;BME280;62885;51.374;6.170;2023-10-31T00:30:10;63693.22;;;10.78;100.00
74372;BME280;62885;51.374;6.170;2023-10-31T00:32:36;63666.13;;;10.78;100.00
74372;BME280;62885;51.374;6.170;2023-10-31T00:35:01;63688.88;;;10.74;100.00
74372;BME280;62885;51.374;6.170;2023-10-31T00:37:27;63696.50;;;10.81;100.00
74372;BME280;62885;51.374;6.170;2023-10-31T00:39:52;63645.88;;;10.74;100.00
74372;BME280;62885;51.374;6.170;2023-10-31T00:42:17;63689.97;;;10.75;100.00
74372;BME280;62885;51.374;6.170;2023-10-31T00:44:43;63685.59;;;10.71;100.00
74372;BME280;62885;51.374;6.170;2023-10-31T00:47:09;63645.88;;;10.74;100.00
74372;BME280;62885;51.374;6.170;2023-10-31T00:49:34;63686.75;;;10.75;100.00
74372;BME280;62885;51.374;6.170;2023-10-31T00:52:00;63689.41;;;10.75;100.00
74372;BME280;62885;51.374;6.170;2023-10-31T00:54:25;63648.59;;;10.76;100.00
74372;BME280;62885;51.374;6.170;2023-10-31T00:56:51;63645.31;;;10.73;100.00
74372;BME280;62885;51.374;6.170;2023-10-31T00:59:16;63661.25;;;10.73;100.00
74372;BME280;62885;51.374;6.170;2023-10-31T01:01:42;63688.88;;;10.74;100.00
74372;BME280;62885;51.374;6.170;2023-10-31T01:04:08;63642.63;;;10.70;100.00
74372;BME280;62885;51.374;6.170;2023-10-31T01:06:33;63643.69;;;10.72;100.00
74372;BME280;62885;51.374;6.170;2023-10-31T01:08:59;63683.97;;;10.69;100.00
74372;BME280;62885;51.374;6.170;2023-10-31T01:11:24;63680.69;;;10.66;100.00
74372;BME280;62885;51.374;6.170;2023-10-31T01:13:49;63683.97;;;10.69;100.00
74372;BME280;62885;51.374;6.170;2023-10-31T01:16:15;63685.59;;;10.71;100.00
74372;BME280;62885;51.374;6.170;2023-10-31T01:18:40;63673.09;;;10.59;100.00
74372;BME280;62885;51.374;6.170;2023-10-31T01:21:05;63668.19;;;10.55;100.00
74372;BME280;62885;51.374;6.170;2023-10-31T01:23:31;63668.72;;;10.55;100.00
74372;BME280;62885;51.374;6.170;2023-10-31T01:25:56;63640.03;;;10.53;100.00
74372;BME280;62885;51.374;6.170;2023-10-31T01:28:21;63673.63;;;10.60;100.00
74372;BME280;62885;51.374;6.170;2023-10-31T01:30:47;63667.63;;;10.54;100.00
74372;BME280;62885;51.374;6.170;2023-10-31T01:33:12;63618.16;;;10.48;100.00
74372;BME280;62885;51.374;6.170;2023-10-31T01:35:37;63666.00;;;10.53;100.00
74372;BME280;62885;51.374;6.170;2023-10-31T01:38:03;63669.81;;;10.56;100.00
74372;BME280;62885;51.374;6.170;2023-10-31T01:40:28;63663.84;;;10.51;100.00
74372;BME280;62885;51.374;6.170;2023-10-31T01:42:55;63668.19;;;10.55;100.00
74372;BME280;62885;51.374;6.170;2023-10-31T01:45:20;63623.03;;;10.52;100.00
74372;BME280;62885;51.374;6.170;2023-10-31T01:47:47;63667.63;;;10.54;100.00
74372;BME280;62885;51.374;6.170;2023-10-31T01:50:13;63622.50;;;10.52;100.00
74372;BME280;62885;51.374;6.170;2023-10-31T01:52:39;63673.09;;;10.59;100.00
74372;BME280;62885;51.374;6.170;2023-10-31T01:55:05;63640.03;;;10.53;100.00
74372;BME280;62885;51.374;6.170;2023-10-31T01:57:30;63623.59;;;10.53;100.00
74372;BME280;62885;51.374;6.170;2023-10-31T01:59:56;63626.84;;;10.56;100.00
74372;BME280;62885;51.374;6.170;2023-10-31T02:02:23;63627.38;;;10.56;100.00
74372;BME280;62885;51.374;6.170;2023-10-31T02:04:50;63627.91;;;10.57;100.00
74372;BME280;62885;51.374;6.170;2023-10-31T02:07:15;63667.63;;;10.54;100.00
74372;BME280;62885;51.374;6.170;2023-10-31T02:09:41;63629.00;;;10.58;100.00
74372;BME280;62885;51.374;6.170;2023-10-31T02:12:06;63634.44;;;10.63;100.00
74372;BME280;62885;51.374;6.170;2023-10-31T02:14:32;63635.53;;;10.64;100.00
74372;BME280;62885;51.374;6.170;2023-10-31T02:16:57;63679.06;;;10.65;100.00
74372;BME280;62885;51.374;6.170;2023-10-31T02:19:22;63676.34;;;10.62;100.00
74372;BME280;62885;51.374;6.170;2023-10-31T02:21:48;63632.81;;;10.61;100.00
74372;BME280;62885;51.374;6.170;2023-10-31T02:24:13;63635.53;;;10.64;100.00
74372;BME280;62885;51.374;6.170;2023-10-31T02:26:39;63652.06;;;10.67;100.00
74372;BME280;62885;51.374;6.170;2023-10-31T02:29:04;63683.44;;;10.69;100.00
74372;BME280;62885;51.374;6.170;2023-10-31T02:31:30;63674.72;;;10.61;100.00
74372;BME280;62885;51.374;6.170;2023-10-31T02:33:56;63674.78;;;10.63;100.00
74372;BME280;62885;51.374;6.170;2023-10-31T02:36:21;63634.44;;;10.63;100.00
74372;BME280;62885;51.374;6.170;2023-10-31T02:38:48;63670.38;;;10.57;100.00
74372;BME280;62885;51.374;6.170;2023-10-31T02:41:13;63631.88;;;10.46;100.00
74372;BME280;62885;51.374;6.170;2023-10-31T02:43:41;63661.03;;;10.46;100.00
74372;BME280;62885;51.374;6.170;2023-10-31T02:46:06;63610.53;;;10.41;100.00
74372;BME280;62885;51.374;6.170;2023-10-31T02:48:32;63648.06;;;10.36;100.00
74372;BME280;62885;51.374;6.170;2023-10-31T02:51:06;63652.41;;;10.40;100.00
74372;BME280;62885;51.374;6.170;2023-10-31T02:53:35;63624.25;;;10.39;100.00
74372;BME280;62885;51.374;6.170;2023-10-31T02:56:01;63606.72;;;10.37;100.00
74372;BME280;62885;51.374;6.170;2023-10-31T02:58:26;63621.00;;;10.36;100.00
74372;BME280;62885;51.374;6.170;2023-10-31T03:00:52;63650.22;;;10.38;100.00
74372;BME280;62885;51.374;6.170;2023-10-31T03:03:17;63650.78;;;10.39;100.00
74372;BME280;62885;51.374;6.170;2023-10-31T03:05:43;63623.72;;;10.38;100.00
74372;BME280;62885;51.374;6.170;2023-10-31T03:08:08;63606.19;;;10.37;100.00
74372;BME280;62885;51.374;6.170;2023-10-31T03:10:35;63626.44;;;10.41;100.00
74372;BME280;62885;51.374;6.170;2023-10-31T03:13:01;63613.25;;;10.43;100.00
74372;BME280;62885;51.374;6.170;2023-10-31T03:15:27;63625.34;;;10.40;100.00
74372;BME280;62885;51.374;6.170;2023-10-31T03:17:53;63627.53;;;10.42;100.00
74372;BME280;62885;51.374;6.170;2023-10-31T03:20:18;63612.16;;;10.42;100.00
74372;BME280;62885;51.374;6.170;2023-10-31T03:22:43;63648.63;;;10.37;100.00
74372;BME280;62885;51.374;6.170;2023-10-31T03:25:09;63654.06;;;10.42;100.00
74372;BME280;62885;51.374;6.170;2023-10-31T03:27:34;63649.69;;;10.38;100.00
74372;BME280;62885;51.374;6.170;2023-10-31T03:30:00;63645.88;;;10.34;100.00
74372;BME280;62885;51.374;6.170;2023-10-31T03:32:27;63625.34;;;10.40;100.00
74372;BME280;62885;51.374;6.170;2023-10-31T03:34:52;63649.69;;;10.38;100.00
74372;BME280;62885;51.374;6.170;2023-10-31T03:37:18;63622.16;;;10.39;100.00
74372;BME280;62885;51.374;6.170;2023-10-31T03:39:43;63622.69;;;10.40;100.00
74372;BME280;62885;51.374;6.170;2023-10-31T03:42:09;63623.72;;;10.38;100.00
74372;BME280;62885;51.374;6.170;2023-10-31T03:44:34;63651.31;;;10.39;100.00
74372;BME280;62885;51.374;6.170;2023-10-31T03:46:59;63652.97;;;10.41;100.00
74372;BME280;62885;51.374;6.170;2023-10-31T03:49:25;63655.66;;;10.43;100.00
74372;BME280;62885;51.374;6.170;2023-10-31T03:51:50;63652.97;;;10.41;100.00
74372;BME280;62885;51.374;6.170;2023-10-31T03:54:17;63659.41;;;10.44;100.00
74372;BME280;62885;51.374;6.170;2023-10-31T03:56:43;63628.59;;;10.43;100.00
74372;BME280;62885;51.374;6.170;2023-10-31T03:59:09;63608.91;;;10.39;100.00
74372;BME280;62885;51.374;6.170;2023-10-31T04:01:34;63629.16;;;10.43;100.00
74372;BME280;62885;51.374;6.170;2023-10-31T04:04:00;63655.13;;;10.43;100.00
74372;BME280;62885;51.374;6.170;2023-10-31T04:06:25;63654.06;;;10.42;100.00
74372;BME280;62885;51.374;6.170;2023-10-31T04:08:50;63624.81;;;10.39;100.00
74372;BME280;62885;51.374;6.170;2023-10-31T04:11:16;63610.53;;;10.41;100.00
74372;BME280;62885;51.374;6.170;2023-10-31T04:13:41;63658.88;;;10.44;100.00
74372;BME280;62885;51.374;6.170;2023-10-31T04:16:07;63617.59;;;10.47;100.00
74372;BME280;62885;51.374;6.170;2023-10-31T04:18:32;63614.88;;;10.45;100.00
74372;BME280;62885;51.374;6.170;2023-10-31T04:20:58;63663.28;;;10.50;100.00
74372;BME280;62885;51.374;6.170;2023-10-31T04:23:23;63661.19;;;10.51;100.00
74372;BME280;62885;51.374;6.170;2023-10-31T04:25:49;63662.81;;;10.52;100.00
74372;BME280;62885;51.374;6.170;2023-10-31T04:28:17;63663.84;;;10.51;100.00
74372;BME280;62885;51.374;6.170;2023-10-31T04:30:42;63663.91;;;10.53;100.00
74372;BME280;62885;51.374;6.170;2023-10-31T04:33:08;63619.22;;;10.49;100.00
74372;BME280;62885;51.374;6.170;2023-10-31T04:35:33;63639.50;;;10.53;100.00
74372;BME280;62885;51.374;6.170;2023-10-31T04:37:58;63666.00;;;10.53;100.00
74372;BME280;62885;51.374;6.170;2023-10-31T04:40:24;63634.06;;;10.48;100.00
74372;BME280;62885;51.374;6.170;2023-10-31T04:42:49;63662.75;;;10.50;100.00
74372;BME280;62885;51.374;6.170;2023-10-31T04:45:15;63621.94;;;10.51;100.00
74372;BME280;62885;51.374;6.170;2023-10-31T04:47:41;63661.19;;;10.51;100.00
74372;BME280;62885;51.374;6.170;2023-10-31T04:50:06;63635.13;;;10.49;100.00
74372;BME280;62885;51.374;6.170;2023-10-31T04:52:32;63636.22;;;10.50;100.00
74372;BME280;62885;51.374;6.170;2023-10-31T04:54:57;63659.53;;;10.49;100.00
74372;BME280;62885;51.374;6.170;2023-10-31T04:57:23;63625.19;;;10.54;100.00
74372;BME280;62885;51.374;6.170;2023-10-31T04:59:48;63623.59;;;10.53;100.00
74372;BME280;62885;51.374;6.170;2023-10-31T05:02:14;63638.94;;;10.52;100.00
74372;BME280;62885;51.374;6.170;2023-10-31T05:04:39;63623.03;;;10.52;100.00
74372;BME280;62885;51.374;6.170;2023-10-31T05:07:05;63624.66;;;10.54;100.00
74372;BME280;62885;51.374;6.170;2023-10-31T05:09:31;63625.19;;;10.54;100.00
74372;BME280;62885;51.374;6.170;2023-10-31T05:11:56;63621.94;;;10.51;100.00
74372;BME280;62885;51.374;6.170;2023-10-31T05:14:21;63622.50;;;10.52;100.00
74372;BME280;62885;51.374;6.170;2023-10-31T05:16:47;63619.75;;;10.49;100.00
74372;BME280;62885;51.374;6.170;2023-10-31T05:19:12;63668.66;;;10.53;100.00
74372;BME280;62885;51.374;6.170;2023-10-31T05:21:38;63619.22;;;10.49;100.00
74372;BME280;62885;51.374;6.170;2023-10-31T05:24:04;63620.84;;;10.50;100.00
74372;BME280;62885;51.374;6.170;2023-10-31T05:26:29;63659.00;;;10.49;100.00
74372;BME280;62885;51.374;6.170;2023-10-31T05:28:55;63661.66;;;10.49;100.00
74372;BME280;62885;51.374;6.170;2023-10-31T05:31:22;63661.66;;;10.49;100.00
74372;BME280;62885;51.374;6.170;2023-10-31T05:33:48;63663.28;;;10.50;100.00
74372;BME280;62885;51.374;6.170;2023-10-31T05:36:23;63623.59;;;10.53;100.00
74372;BME280;62885;51.374;6.170;2023-10-31T05:38:48;63663.84;;;10.51;100.00
74372;BME280;62885;51.374;6.170;2023-10-31T05:41:14;63637.31;;;10.51;100.00
74372;BME280;62885;51.374;6.170;2023-10-31T05:43:40;63617.06;;;10.47;100.00
74372;BME280;62885;51.374;6.170;2023-10-31T05:46:06;63657.31;;;10.45;100.00
74372;BME280;62885;51.374;6.170;2023-10-31T05:48:32;63654.66;;;10.45;100.00
74372;BME280;62885;51.374;6.170;2023-10-31T05:50:57;63610.53;;;10.41;100.00
74372;BME280;62885;51.374;6.170;2023-10-31T05:53:26;63605.66;;;10.36;100.00
74372;BME280;62885;51.374;6.170;2023-10-31T05:55:51;63643.16;;;10.32;100.00
74372;BME280;62885;51.374;6.170;2023-10-31T05:58:16;63646.97;;;10.35;100.00
74372;BME280;62885;51.374;6.170;2023-10-31T06:00:42;63601.81;;;10.33;100.00
74372;BME280;62885;51.374;6.170;2023-10-31T06:03:07;63645.88;;;10.34;100.00
74372;BME280;62885;51.374;6.170;2023-10-31T06:05:33;63604.00;;;10.35;100.00
74372;BME280;62885;51.374;6.170;2023-10-31T06:08:00;63647.44;;;10.33;100.00
74372;BME280;62885;51.374;6.170;2023-10-31T06:10:26;63648.53;;;10.34;100.00
74372;BME280;62885;51.374;6.170;2023-10-31T06:12:51;63608.91;;;10.39;100.00
74372;BME280;62885;51.374;6.170;2023-10-31T06:15:16;63612.16;;;10.42;100.00
74372;BME280;62885;51.374;6.170;2023-10-31T06:17:42;63654.06;;;10.42;100.00
74372;BME280;62885;51.374;6.170;2023-10-31T06:20:08;63614.88;;;10.45;100.00
74372;BME280;62885;51.374;6.170;2023-10-31T06:22:34;63629.16;;;10.43;100.00
74372;BME280;62885;51.374;6.170;2023-10-31T06:24:59;63647.53;;;10.36;100.00
74372;BME280;62885;51.374;6.170;2023-10-31T06:27:24;63647.56;;;10.38;100.00
74372;BME280;62885;51.374;6.170;2023-10-31T06:29:50;63647.56;;;10.38;100.00
74372;BME280;62885;51.374;6.170;2023-10-31T06:32:15;63603.47;;;10.34;100.00
74372;BME280;62885;51.374;6.170;2023-10-31T06:34:41;63646.44;;;10.35;100.00
74372;BME280;62885;51.374;6.170;2023-10-31T06:37:06;63600.19;;;10.31;100.00
74372;BME280;62885;51.374;6.170;2023-10-31T06:39:31;63648.06;;;10.36;100.00
74372;BME280;62885;51.374;6.170;2023-10-31T06:41:57;63641.06;;;10.32;100.00
74372;BME280;62885;51.374;6.170;2023-10-31T06:44:23;63595.31;;;10.26;100.00
74372;BME280;62885;51.374;6.170;2023-10-31T06:46:48;63593.13;;;10.24;100.00
74372;BME280;62885;51.374;6.170;2023-10-31T06:49:14;63630.09;;;10.19;100.00
74372;BME280;62885;51.374;6.170;2023-10-31T06:51:39;63587.16;;;10.19;100.00
74372;BME280;62885;51.374;6.170;2023-10-31T06:54:04;63601.44;;;10.17;100.00
74372;BME280;62885;51.374;6.170;2023-10-31T06:56:30;63609.56;;;10.25;100.00
74372;BME280;62885;51.374;6.170;2023-10-31T06:58:55;63630.09;;;10.19;100.00
74372;BME280;62885;51.374;6.170;2023-10-31T07:01:21;63596.53;;;10.13;100.00
74372;BME280;62885;51.374;6.170;2023-10-31T07:03:47;63628.53;;;10.20;100.00
74372;BME280;62885;51.374;6.170;2023-10-31T07:06:12;63601.97;;;10.18;100.00
74372;BME280;62885;51.374;6.170;2023-10-31T07:08:37;63624.63;;;10.14;100.00
74372;BME280;62885;51.374;6.170;2023-10-31T07:11:03;63622.53;;;10.15;100.00
74372;BME280;62885;51.374;6.170;2023-10-31T07:13:30;63594.94;;;10.14;100.00
74372;BME280;62885;51.374;6.170;2023-10-31T07:15:55;63608.50;;;10.24;100.00
74372;BME280;62885;51.374;6.170;2023-10-31T07:18:21;63603.59;;;10.19;100.00
74372;BME280;62885;51.374;6.170;2023-10-31T07:20:46;63626.84;;;10.16;100.00
74372;BME280;62885;51.374;6.170;2023-10-31T07:23:12;63626.84;;;10.16;100.00
74372;BME280;62885;51.374;6.170;2023-10-31T07:25:37;63625.28;;;10.17;100.00
74372;BME280;62885;51.374;6.170;2023-10-31T07:28:02;63590.97;;;10.22;100.00
74372;BME280;62885;51.374;6.170;2023-10-31T07:30:28;63594.75;;;10.26;100.00
74372;BME280;62885;51.374;6.170;2023-10-31T07:32:53;63590.97;;;10.22;100.00
74372;BME280;62885;51.374;6.170;2023-10-31T07:35:18;63594.22;;;10.25;100.00
74372;BME280;62885;51.374;6.170;2023-10-31T07:37:45;63638.25;;;10.27;100.00
74372;BME280;62885;51.374;6.170;2023-10-31T07:40:11;63615.03;;;10.30;100.00
74372;BME280;62885;51.374;6.170;2023-10-31T07:42:36;63600.19;;;10.31;100.00
74372;BME280;62885;51.374;6.170;2023-10-31T07:45:02;63642.09;;;10.31;100.00
74372;BME280;62885;51.374;6.170;2023-10-31T07:47:27;63644.78;;;10.33;100.00
74372;BME280;62885;51.374;6.170;2023-10-31T07:49:52;63646.97;;;10.35;100.00
74372;BME280;62885;51.374;6.170;2023-10-31T07:52:18;63608.91;;;10.39;100.00
74372;BME280;62885;51.374;6.170;2023-10-31T07:54:44;63656.22;;;10.44;100.00
74372;BME280;62885;51.374;6.170;2023-10-31T07:57:10;63612.69;;;10.43;100.00
74372;BME280;62885;51.374;6.170;2023-10-31T07:59:35;63625.91;;;10.40;100.00
74372;BME280;62885;51.374;6.170;2023-10-31T08:02:01;63607.25;;;10.38;100.00
74372;BME280;62885;51.374;6.170;2023-10-31T08:04:26;63643.78;;;10.35;100.00
74372;BME280;62885;51.374;6.170;2023-10-31T08:06:53;63622.09;;;10.37;100.00
74372;BME280;62885;51.374;6.170;2023-10-31T08:09:18;63647.53;;;10.36;100.00
74372;BME280;62885;51.374;6.170;2023-10-31T08:11:44;63606.72;;;10.37;100.00
74372;BME280;62885;51.374;6.170;2023-10-31T08:14:09;63652.97;;;10.41;100.00
74372;BME280;62885;51.374;6.170;2023-10-31T08:16:35;63652.34;;;10.38;100.00
74372;BME280;62885;51.374;6.170;2023-10-31T08:19:02;63626.44;;;10.41;100.00
74372;BME280;62885;51.374;6.170;2023-10-31T08:21:27;63603.47;;;10.34;100.00
74372;BME280;62885;51.374;6.170;2023-10-31T08:23:58;63622.63;;;10.37;100.00
74372;BME280;62885;51.374;6.170;2023-10-31T08:26:23;63645.97;;;10.37;100.00
74372;BME280;62885;51.374;6.170;2023-10-31T08:28:49;63623.16;;;10.38;100.00
74372;BME280;62885;51.374;6.170;2023-10-31T08:31:14;63611.06;;;10.41;100.00
74372;BME280;62885;51.374;6.170;2023-10-31T08:33:40;63660.03;;;10.47;100.00
74372;BME280;62885;51.374;6.170;2023-10-31T08:36:05;63630.66;;;10.59;100.00
74372;BME280;62885;51.374;6.170;2023-10-31T08:38:31;63627.38;;;10.56;100.00
74372;BME280;62885;51.374;6.170;2023-10-31T08:40:58;63623.59;;;10.53;100.00
74372;BME280;62885;51.374;6.170;2023-10-31T08:43:23;63670.91;;;10.57;100.00
74372;BME280;62885;51.374;6.170;2023-10-31T08:45:49;63683.91;;;10.67;100.00
74372;BME280;62885;51.374;6.170;2023-10-31T08:48:14;63654.16;;;10.66;100.00
74372;BME280;62885;51.374;6.170;2023-10-31T08:50:41;63658.53;;;10.70;100.00
74372;BME280;62885;51.374;6.170;2023-10-31T08:53:06;63681.78;;;10.67;100.00
74372;BME280;62885;51.374;6.170;2023-10-31T08:55:31;63683.44;;;10.69;100.00
74372;BME280;62885;51.374;6.170;2023-10-31T08:57:57;63640.97;;;10.69;100.00
74372;BME280;62885;51.374;6.170;2023-10-31T09:00:22;63681.78;;;10.67;100.00
74372;BME280;62885;51.374;6.170;2023-10-31T09:02:48;63691.09;;;10.79;100.00
74372;BME280;62885;51.374;6.170;2023-10-31T09:05:13;63665.59;;;10.77;100.00
74372;BME280;62885;51.374;6.170;2023-10-31T09:07:39;63697.50;;;10.80;100.00
74372;BME280;62885;51.374;6.170;2023-10-31T09:10:04;63648.06;;;10.76;100.00
74372;BME280;62885;51.374;6.170;2023-10-31T09:12:33;63649.69;;;10.77;100.00
74372;BME280;62885;51.374;6.170;2023-10-31T09:14:58;63656.22;;;10.83;100.00
74372;BME280;62885;51.374;6.170;2023-10-31T09:17:23;63664.91;;;10.91;100.00
74372;BME280;62885;51.374;6.170;2023-10-31T09:19:49;63705.19;;;10.89;100.00
74372;BME280;62885;51.374;6.170;2023-10-31T09:22:14;63712.25;;;10.96;100.00
74372;BME280;62885;51.374;6.170;2023-10-31T09:24:39;63671.97;;;10.98;100.00
74372;BME280;62885;51.374;6.170;2023-10-31T09:27:05;63691.69;;;11.01;100.00
74372;BME280;62885;51.374;6.170;2023-10-31T09:29:30;63679.59;;;11.05;100.00
74372;BME280;62885;51.374;6.170;2023-10-31T09:31:56;63684.66;;;10.95;100.00
74372;BME280;62885;51.374;6.170;2023-10-31T09:34:22;63669.78;;;10.96;100.00
74372;BME280;62885;51.374;6.170;2023-10-31T09:36:47;63683.94;;;11.09;100.00
74372;BME280;62885;51.374;6.170;2023-10-31T09:39:13;63689.94;;;11.15;100.00
74372;BME280;62885;51.374;6.170;2023-10-31T09:41:38;63734.59;;;11.17;100.00
74372;BME280;62885;51.374;6.170;2023-10-31T09:44:03;63727.56;;;11.12;100.00
74372;BME280;62885;51.374;6.170;2023-10-31T09:46:29;63697.75;;;11.09;100.00
74372;BME280;62885;51.374;6.170;2023-10-31T09:48:56;63743.28;;;11.25;100.00
74372;BME280;62885;51.374;6.170;2023-10-31T09:51:21;63705.72;;;11.29;100.00
74372;BME280;62885;51.374;6.170;2023-10-31T09:53:47;63747.66;;;11.29;100.00
74372;BME280;62885;51.374;6.170;2023-10-31T09:56:14;63713.88;;;11.37;100.00
74372;BME280;62885;51.374;6.170;2023-10-31T09:58:40;63716.06;;;11.39;100.00
74372;BME280;62885;51.374;6.170;2023-10-31T10:01:09;63760.66;;;11.38;100.00
74372;BME280;62885;51.374;6.170;2023-10-31T10:03:34;63717.69;;;11.40;100.00
74372;BME280;62885;51.374;6.170;2023-10-31T10:05:59;63726.00;;;11.33;100.00
74372;BME280;62885;51.374;6.170;2023-10-31T10:08:25;63751.41;;;11.30;100.00
74372;BME280;62885;51.374;6.170;2023-10-31T10:10:51;63712.78;;;11.36;100.00
74372;BME280;62885;51.374;6.170;2023-10-31T10:13:20;63725.84;;;11.48;100.00
74372;BME280;62885;51.374;6.170;2023-10-31T10:15:47;63723.13;;;11.45;100.00
74372;BME280;62885;51.374;6.170;2023-10-31T10:18:31;63723.13;;;11.45;100.00
74372;BME280;62885;51.374;6.170;2023-10-31T10:20:58;63743.97;;;11.50;100.00
74372;BME280;62885;51.374;6.170;2023-10-31T10:23:24;63725.28;;;11.47;100.00
74372;BME280;62885;51.374;6.170;2023-10-31T10:25:51;63740.69;;;11.47;100.00
74372;BME280;62885;51.374;6.170;2023-10-31T10:28:17;63726.38;;;11.48;100.00
74372;BME280;62885;51.374;6.170;2023-10-31T10:30:45;63734.00;;;11.56;100.00
74372;BME280;62885;51.374;6.170;2023-10-31T10:33:11;63740.53;;;11.62;100.00
74372;BME280;62885;51.374;6.170;2023-10-31T10:35:37;63770.66;;;11.75;100.00
74372;BME280;62885;51.374;6.170;2023-10-31T10:38:04;63801.03;;;11.78;100.00
74372;BME280;62885;51.374;6.170;2023-10-31T10:40:33;63765.59;;;11.85;100.00
74372;BME280;62885;51.374;6.170;2023-10-31T10:43:00;63803.22;;;11.80;100.00
74372;BME280;62885;51.374;6.170;2023-10-31T10:45:29;63808.13;;;11.85;100.00
74372;BME280;62885;51.374;6.170;2023-10-31T10:47:57;63826.09;;;12.02;100.00
74372;BME280;62885;51.374;6.170;2023-10-31T10:50:27;63838.63;;;12.13;100.00
74372;BME280;62885;51.374;6.170;2023-10-31T10:53:03;63844.63;;;12.19;100.00
74372;BME280;62885;51.374;6.170;2023-10-31T10:55:36;63833.19;;;12.08;100.00
74372;BME280;62885;51.374;6.170;2023-10-31T10:58:05;63838.63;;;12.13;100.00
74372;BME280;62885;51.374;6.170;2023-10-31T11:00:33;63808.06;;;12.24;100.00
74372;BME280;62885;51.374;6.170;2023-10-31T11:03:00;63808.63;;;12.25;100.00
74372;BME280;62885;51.374;6.170;2023-10-31T11:05:27;63802.09;;;12.19;100.00
74372;BME280;62885;51.374;6.170;2023-10-31T11:07:53;63850.06;;;12.24;100.00
74372;BME280;62885;51.374;6.170;2023-10-31T11:10:21;63816.78;;;12.32;100.00
74372;BME280;62885;51.374;6.170;2023-10-31T11:12:46;63851.78;;;12.28;100.00
74372;BME280;62885;51.374;6.170;2023-10-31T11:15:14;63809.72;;;12.26;100.00
74372;BME280;62885;51.374;6.170;2023-10-31T11:17:42;63808.63;;;12.25;100.00
74372;BME280;62885;51.374;6.170;2023-10-31T11:20:11;63799.38;;;12.16;100.00
74372;BME280;62885;51.374;6.170;2023-10-31T11:22:46;63831.63;;;12.09;100.00
74372;BME280;62885;51.374;6.170;2023-10-31T11:25:17;63831.56;;;12.07;100.00
74372;BME280;62885;51.374;6.170;2023-10-31T11:27:44;63836.53;;;12.14;100.00
74372;BME280;62885;51.374;6.170;2023-10-31T11:30:30;63797.72;;;12.15;100.00
74372;BME280;62885;51.374;6.170;2023-10-31T11:32:58;63856.06;;;12.29;100.00
74372;BME280;62885;51.374;6.170;2023-10-31T11:35:24;63822.78;;;12.38;100.00
74372;BME280;62885;51.374;6.170;2023-10-31T11:38:01;63888.72;;;12.57;100.00
74372;BME280;62885;51.374;6.170;2023-10-31T11:40:28;63842.41;;;12.56;100.00
74372;BME280;62885;51.374;6.170;2023-10-31T11:42:57;63864.34;;;12.62;100.00
74372;BME280;62885;51.374;6.170;2023-10-31T11:47:51;63858.38;;;12.56;100.00
74372;BME280;62885;51.374;6.170;2023-10-31T11:50:17;63842.94;;;12.57;100.00
74372;BME280;62885;51.374;6.170;2023-10-31T11:52:43;63859.28;;;12.72;100.00
74372;BME280;62885;51.374;6.170;2023-10-31T11:55:09;63862.56;;;12.75;100.00
74372;BME280;62885;51.374;6.170;2023-10-31T11:57:35;63865.81;;;12.78;100.00
74372;BME280;62885;51.374;6.170;2023-10-31T12:00:02;63871.81;;;12.84;100.00
74372;BME280;62885;51.374;6.170;2023-10-31T12:02:29;63872.34;;;12.84;100.00
74372;BME280;62885;51.374;6.170;2023-10-31T12:05:12;63901.88;;;12.72;100.00
74372;BME280;62885;51.374;6.170;2023-10-31T12:07:45;63893.75;;;12.67;100.00
74372;BME280;62885;51.374;6.170;2023-10-31T12:10:12;63846.75;;;12.60;100.00
74372;BME280;62885;51.374;6.170;2023-10-31T12:12:38;63853.84;;;12.67;100.00
74372;BME280;62885;51.374;6.170;2023-10-31T12:15:07;63895.88;;;12.66;100.00
74372;BME280;62885;51.374;6.170;2023-10-31T12:17:34;63850.03;;;12.63;100.00
74372;BME280;62885;51.374;6.170;2023-10-31T12:20:03;63883.41;;;12.57;100.00
74372;BME280;62885;51.374;6.170;2023-10-31T12:22:29;63852.19;;;12.65;100.00
74372;BME280;62885;51.374;6.170;2023-10-31T12:25:04;63848.38;;;12.62;100.00
74372;BME280;62885;51.374;6.170;2023-10-31T12:30:09;63904.59;;;12.74;100.00
74372;BME280;62885;51.374;6.170;2023-10-31T12:32:35;63905.16;;;12.75;100.00
74372;BME280;62885;51.374;6.170;2023-10-31T12:35:00;63906.78;;;12.76;100.00
74372;BME280;62885;51.374;6.170;2023-10-31T12:37:26;63862.00;;;12.74;100.00
74372;BME280;62885;51.374;6.170;2023-10-31T12:39:51;63905.75;;;12.78;100.00
74372;BME280;62885;51.374;6.170;2023-10-31T12:42:17;63916.06;;;12.85;100.00
74372;BME280;62885;51.374;6.170;2023-10-31T12:44:43;63876.72;;;12.88;100.00
74372;BME280;62885;51.374;6.170;2023-10-31T12:47:08;63918.84;;;12.90;100.00
74372;BME280;62885;51.374;6.170;2023-10-31T12:49:34;63877.25;;;12.89;100.00